K4FB Weather Reports


Display with metric or nautical units.
time (UTC)temp
F
wind
direction
speed
MPH
gust
MPH
rain 1hr
in
rain 24hr
in
rain mn
in
humidity
%
barometer
mb
20210225185520 84 328 2.0 8.0 0.00 0.00 0.00 47 1020.2
20210225185021 84 334 2.0 8.0 0.00 0.00 0.00 47 1020.4
20210225144012 70 343 2.0 5.0 0.00 0.00 0.00 61 1022.8
20210225143507 70 347 2.0 5.0 0.00 0.00 0.00 61 1022.7
20210225143023 70 340 2.0 5.0 0.00 0.00 0.00 62 1022.8
20210225140026 67 3 2.0 5.0 0.00 0.00 0.00 69 1022.5
20210225135513 66 4 1.0 4.0 0.00 0.00 0.00 70 1022.5
20210225115531 48 0 0.0 0.0 0.00 0.00 0.00 84 1020.9
20210225115132 48 0 0.0 0.0 0.00 0.00 0.00 84 1020.9
20210225114608 48 0 0.0 0.0 0.00 0.00 0.00 84 1020.8
20210225113052 49 0 0.0 0.0 0.00 0.00 0.00 83 1020.6
20210225112610 49 0 0.0 0.0 0.00 0.00 0.00 83 1020.6
20210225112017 49 0 0.0 0.0 0.00 0.00 0.00 83 1020.5
20210225075512 50 0 0.0 0.0 0.00 0.00 0.00 86 1019.6
20210225075016 50 0 0.0 0.0 0.00 0.00 0.00 85 1019.7
20210225053521 54 0 0.0 0.0 0.00 0.00 0.00 85 1020.2
20210225053020 54 0 0.0 0.0 0.00 0.00 0.00 85 1020.2
20210225031521 60 0 0.0 0.0 0.00 0.00 0.00 77 1020.7
20210225031018 60 0 0.0 1.0 0.00 0.00 0.00 76 1020.7
20210225030513 60 0 0.0 1.0 0.00 0.00 0.00 76 1020.6
20210225030024 60 0 0.0 0.0 0.00 0.00 0.00 75 1020.4
20210225025510 60 0 0.0 0.0 0.00 0.00 0.00 75 1020.3
20210225025013 61 0 0.0 0.0 0.00 0.00 0.00 75 1020.2
20210225022021 62 0 0.0 1.0 0.00 0.00 0.00 73 1019.9
20210225021514 62 0 0.0 1.0 0.00 0.00 0.00 73 1019.8
20210225013150 65 0 0.0 0.0 0.00 0.00 0.00 70 1019.4
20210225012658 66 0 0.0 0.0 0.00 0.00 0.00 69 1019.4
20210224235511 72 0 0.0 2.0 0.00 0.00 0.00 61 1018.6
20210224235330 73 0 0.0 2.0 0.00 0.00 0.00 60 1018.6
20210224234520 73 0 0.0 4.0 0.00 0.00 0.00 60 1018.6
20210224232011 75 251 1.0 4.0 0.00 0.00 0.00 59 1018.3
20210224231523 76 251 1.0 5.0 0.00 0.00 0.00 59 1018.3
20210224214513 82 292 3.0 9.0 0.00 0.00 0.00 58 1017.8
20210224214024 82 292 3.0 9.0 0.00 0.00 0.00 57 1017.7
20210224213518 82 296 3.0 8.0 0.00 0.00 0.00 59 1017.7
20210224194511 86 185 3.0 11.0 0.00 0.00 0.00 52 1018.1
20210224194011 86 184 2.0 10.0 0.00 0.00 0.00 53 1018.1